Pagrindinis puslapis
METAR-TAF:

METAR-TAF

Oro uostai :

Mitilėnė-Lesbas, Graikija

platuma: 39-04N, ilguma: 026-36E, Aukštis: 3 m

Dabartinis oras

Ataskaita buvo paskelbta 17 minutes, ne 18:50 UTC
Vėjas 6 kt iš Šiaurės, svyruoja nuo Vakarų/Šiaurės Vakarų ir Šiaurės/Šiaurės Rytų
Temperatūra 22°C
Drėgmė 65%
Slėgis 1018 hPa
Matomumas 10 km arba daugiau
nėra debesų žemiau 1500 m ir nėra kamuolinių lietaus debesų

METAR: LGMT 151850Z 35006KT 300V030 CAVOK 22/15 Q1018

Laikas: 22:07 (19:07 UTC)

Prognozė

Ataskaita buvo paskelbta 2 valandos ir 7 minutes, ne 17:00 UTC
Prognozė galioja nuo 15 metu 18 UTC su 16 metu 03 UTC
Vėjas 14 kt iš Šiaurės
Matomumas 10 km arba daugiau
Mažai debesys ne aukštis 2000 ft

TAF: LGMT 151700Z 1518/1603 36014KT 9999 FEW020

Orai ataskaitas ir orų prognozės (METAR, TAF).

turimą stotys yra geltonos ir raudonos taškus žemėlapyje.

Perkelti pele per norėdami pamatyti stoties vardą.

Tada spustelėkite, norėdami matyti oro stebėjimo ir prognozės.

Norėdami pakeisti žemėlapį: spustelėkite ant žalios mygtukų su juodo kryžiaus žemyn,; žalią mygtuką su brūkšneliu, jei norite nutolinti; arba žalių rodyklių gretimoms žemėlapius.


METAR-TAF: